Lavista, Nebraska
Current Conditions -  °F | °C
As of 9:35 AM on Sunday 21 Dec 2014 (Local Time) from KMLE Reporting Station
Haze Haze  
Wind Chill:   Ceiling: 700
Heat Index:   Visibility: 5mi
Dew Point:   Wind: 7mph
Humidity: 88%   Direction: 170°S
Pressure: 29.87"   Gusts: NA
Location:  41.166°N, 96.0444°W
Report Text: KMLE 211535Z AUTO 17006KT 5SM BR OVC007 05/03 A2987 RMK AO2 T00450027
Loading
Personal Weather Stations






























Interactive Weather Map New forecast layout! Learn more

10-Day Weather Forecast

Advertisements
Track Severe Weather on mobile